createdAt,value
2018-08-20T00:01:51.922Z,9.98
2018-08-20T00:04:19.959Z,10.28
2018-08-20T00:06:54.868Z,10.80
2018-08-20T00:09:34.355Z,10.58
2018-08-20T00:12:02.527Z,10.43
2018-08-20T00:14:30.742Z,10.30
2018-08-20T00:16:58.987Z,10.90
2018-08-20T00:19:27.097Z,10.23
2018-08-20T00:21:55.218Z,11.38
2018-08-20T00:24:23.307Z,10.68
2018-08-20T00:26:51.347Z,10.03
2018-08-20T00:29:19.411Z,12.18
2018-08-20T00:31:49.017Z,10.55
2018-08-20T00:34:17.083Z,10.35
2018-08-20T00:36:45.715Z,11.12
2018-08-20T00:39:13.770Z,10.88
2018-08-20T00:41:41.845Z,11.48
2018-08-20T00:44:12.408Z,10.10
2018-08-20T00:46:40.835Z,10.72
2018-08-20T00:49:08.875Z,10.95
2018-08-20T00:51:36.921Z,10.38
2018-08-20T00:54:04.988Z,11.48
2018-08-20T00:56:33.047Z,10.18
2018-08-20T00:59:01.732Z,9.93
2018-08-20T01:01:29.811Z,10.72
2018-08-20T01:03:57.955Z,11.33
2018-08-20T01:06:26.047Z,11.63
2018-08-20T01:08:54.124Z,12.40
2018-08-20T01:11:22.295Z,11.20
2018-08-20T01:13:50.432Z,10.60
2018-08-20T01:16:18.491Z,11.43
2018-08-20T01:18:46.567Z,10.38
2018-08-20T01:21:14.664Z,12.05
2018-08-20T01:23:43.100Z,11.63
2018-08-20T01:28:45.494Z,11.50
2018-08-20T01:31:13.594Z,11.45
2018-08-20T01:33:41.665Z,11.53
2018-08-20T01:36:09.739Z,11.60
2018-08-20T01:38:37.803Z,11.15
2018-08-20T01:41:05.872Z,11.45
2018-08-20T01:43:33.943Z,11.78
2018-08-20T01:46:02.060Z,10.85
2018-08-20T01:48:30.139Z,10.90
2018-08-20T01:50:58.207Z,12.10
2018-08-20T01:53:26.283Z,11.38
2018-08-20T01:55:54.390Z,12.33
2018-08-20T01:58:22.469Z,12.53
2018-08-20T02:00:50.509Z,11.65
2018-08-20T02:03:18.674Z,10.82
2018-08-20T02:05:46.757Z,12.20
2018-08-20T02:08:14.839Z,12.85
2018-08-20T02:10:42.930Z,11.12
2018-08-20T02:13:11.012Z,10.58
2018-08-20T02:15:39.177Z,12.30
2018-08-20T02:18:08.972Z,10.80
2018-08-20T02:20:37.061Z,11.38
2018-08-20T02:23:05.207Z,11.05
2018-08-20T02:25:33.269Z,11.80
2018-08-20T02:28:01.357Z,11.12
2018-08-20T02:30:29.431Z,10.93
2018-08-20T02:32:57.626Z,11.25
2018-08-20T02:35:25.774Z,11.65
2018-08-20T02:37:53.904Z,11.20
2018-08-20T02:40:22.023Z,11.33
2018-08-20T02:42:50.127Z,11.50
2018-08-20T02:45:19.028Z,11.08
2018-08-20T02:47:47.501Z,10.90
2018-08-20T02:50:16.199Z,10.32
2018-08-20T02:52:44.988Z,9.98
2018-08-20T02:55:13.209Z,11.20
2018-08-20T02:57:41.294Z,9.63
2018-08-20T03:00:11.605Z,9.25
2018-08-20T03:02:39.672Z,9.25
2018-08-20T03:05:08.084Z,8.90
2018-08-20T03:07:36.178Z,9.15
2018-08-20T03:10:05.792Z,9.15
2018-08-20T03:12:33.874Z,9.18
2018-08-20T03:15:01.959Z,9.70
2018-08-20T03:17:30.099Z,9.88
2018-08-20T03:19:58.133Z,9.83
2018-08-20T03:22:26.317Z,9.28
2018-08-20T03:24:54.399Z,9.10
2018-08-20T03:27:22.472Z,9.08
2018-08-20T03:29:50.553Z,7.95
2018-08-20T03:32:18.664Z,8.20
2018-08-20T03:34:46.749Z,9.40
2018-08-20T03:37:14.791Z,9.35
2018-08-20T03:39:42.864Z,9.05
2018-08-20T03:42:10.947Z,8.65
2018-08-20T03:44:39.072Z,8.68
2018-08-20T03:47:07.128Z,9.88
2018-08-20T03:49:35.222Z,9.25
2018-08-20T03:52:03.294Z,8.03
2018-08-20T03:54:31.384Z,9.10
2018-08-20T03:56:59.550Z,11.33
2018-08-20T03:59:35.268Z,11.08
2018-08-20T04:02:05.792Z,10.70
2018-08-20T04:04:33.895Z,9.55
2018-08-20T04:07:03.684Z,9.98
2018-08-20T04:09:32.450Z,10.30
2018-08-20T04:12:01.514Z,11.18
2018-08-20T04:14:29.669Z,10.78
2018-08-20T04:16:58.008Z,10.93
2018-08-20T04:19:26.187Z,10.72
2018-08-20T04:21:54.301Z,10.35
2018-08-20T04:24:22.469Z,10.85
2018-08-20T04:26:51.174Z,10.58
2018-08-20T04:29:19.747Z,10.53
2018-08-20T04:31:48.136Z,9.95
2018-08-20T04:34:16.248Z,10.20
2018-08-20T04:36:44.348Z,10.82
2018-08-20T04:39:12.455Z,11.00
2018-08-20T04:41:40.884Z,11.30
2018-08-20T04:44:09.672Z,12.23
2018-08-20T04:46:37.870Z,10.65
2018-08-20T04:49:06.010Z,11.80
2018-08-20T04:51:34.195Z,12.07
2018-08-20T04:54:02.214Z,11.70
2018-08-20T04:56:30.305Z,12.73
2018-08-20T04:58:58.407Z,12.93
2018-08-20T05:01:26.495Z,11.40
2018-08-20T05:03:54.638Z,11.97
2018-08-20T05:06:22.686Z,11.95
2018-08-20T05:08:50.835Z,11.80
2018-08-20T05:11:18.927Z,12.05
2018-08-20T05:13:47.032Z,11.48
2018-08-20T05:16:15.138Z,11.43
2018-08-20T05:18:43.248Z,10.70
2018-08-20T05:21:11.348Z,10.13
2018-08-20T05:23:39.480Z,10.23
2018-08-20T05:26:07.611Z,10.00
2018-08-20T05:28:35.701Z,9.83
2018-08-20T05:31:03.799Z,10.80
2018-08-20T05:33:32.184Z,10.03
2018-08-20T05:36:00.329Z,10.58
2018-08-20T05:38:28.382Z,9.58
2018-08-20T05:40:56.473Z,10.35
2018-08-20T05:43:24.572Z,10.10
2018-08-20T05:45:52.803Z,10.98
2018-08-20T05:48:20.923Z,10.00
2018-08-20T05:50:49.146Z,9.23
2018-08-20T05:53:17.246Z,9.10
2018-08-20T05:55:45.363Z,10.08
2018-08-20T05:58:13.655Z,9.33
2018-08-20T06:00:41.767Z,9.73
2018-08-20T06:03:10.023Z,10.53
2018-08-20T06:05:38.135Z,10.13
2018-08-20T06:08:06.276Z,10.72
2018-08-20T06:10:34.380Z,11.60
2018-08-20T06:13:02.555Z,12.13
2018-08-20T06:15:30.669Z,10.25
2018-08-20T06:17:58.793Z,10.85
2018-08-20T06:20:26.909Z,10.65
2018-08-20T06:22:55.965Z,11.22
2018-08-20T06:25:24.100Z,12.45
2018-08-20T06:27:52.252Z,12.15
2018-08-20T06:30:20.425Z,11.80
2018-08-20T06:32:48.529Z,13.38
2018-08-20T06:35:16.664Z,12.63
2018-08-20T06:37:44.745Z,13.68
2018-08-20T06:40:14.063Z,13.80
2018-08-20T06:42:42.142Z,11.75
2018-08-20T06:45:13.412Z,12.05
2018-08-20T06:47:42.305Z,12.50
2018-08-20T06:50:10.372Z,15.58
2018-08-20T06:52:38.773Z,14.25
2018-08-20T06:55:06.862Z,15.20
2018-08-20T06:57:34.954Z,16.02
2018-08-20T07:00:03.067Z,15.65
2018-08-20T07:02:31.123Z,13.78
2018-08-20T07:04:59.264Z,14.35
2018-08-20T07:07:27.413Z,14.75
2018-08-20T07:09:55.515Z,14.90
2018-08-20T07:12:23.654Z,14.55
2018-08-20T07:14:51.696Z,13.78
2018-08-20T07:17:19.769Z,14.15
2018-08-20T07:19:47.903Z,14.87
2018-08-20T07:22:16.032Z,14.40
2018-08-20T07:24:44.115Z,15.13
2018-08-20T07:27:12.246Z,15.32
2018-08-20T07:29:45.077Z,15.10
2018-08-20T07:32:14.390Z,13.68
2018-08-20T07:34:43.559Z,13.38
2018-08-20T07:37:13.696Z,14.18
2018-08-20T07:39:43.250Z,15.60
2018-08-20T07:42:11.474Z,13.80
2018-08-20T07:44:40.450Z,14.45
2018-08-20T07:47:08.945Z,16.65
2018-08-20T07:49:37.056Z,15.45
2018-08-20T07:52:05.810Z,15.20
2018-08-20T07:54:35.655Z,14.35
2018-08-20T07:57:03.979Z,15.05
2018-08-20T07:59:32.147Z,14.07
2018-08-20T08:02:00.300Z,14.55
2018-08-20T08:04:28.653Z,13.65
2018-08-20T08:06:57.244Z,13.95
2018-08-20T08:09:25.370Z,14.60
2018-08-20T08:11:53.492Z,14.90
2018-08-20T08:14:21.615Z,14.55
2018-08-20T08:16:49.725Z,14.47
2018-08-20T08:19:17.823Z,14.33
2018-08-20T08:21:45.909Z,13.72
2018-08-20T08:24:14.018Z,14.20
2018-08-20T08:26:42.196Z,13.13
2018-08-20T08:29:10.327Z,12.05
2018-08-20T08:31:38.424Z,13.35
2018-08-20T08:34:06.597Z,14.35
2018-08-20T08:36:34.738Z,14.40
2018-08-20T08:39:02.921Z,14.75
2018-08-20T08:41:31.066Z,12.05
2018-08-20T08:43:59.151Z,11.53
2018-08-20T08:46:28.823Z,14.23
2018-08-20T08:48:57.188Z,12.47
2018-08-20T08:51:25.273Z,12.23
2018-08-20T08:53:53.384Z,11.93
2018-08-20T08:56:21.490Z,11.50
2018-08-20T08:58:49.592Z,11.10
2018-08-20T09:01:17.703Z,10.90
2018-08-20T09:03:47.186Z,12.35
2018-08-20T09:06:15.975Z,11.85
2018-08-20T09:08:44.124Z,13.43
2018-08-20T09:11:12.200Z,16.12
2018-08-20T09:13:41.060Z,11.75
2018-08-20T09:16:09.149Z,13.32
2018-08-20T09:18:37.376Z,13.72
2018-08-20T09:21:05.545Z,11.88
2018-08-20T09:23:33.668Z,13.35
2018-08-20T09:26:01.797Z,11.57
2018-08-20T09:28:29.958Z,11.53
2018-08-20T09:30:58.196Z,12.05
2018-08-20T09:33:26.334Z,13.08
2018-08-20T09:35:54.395Z,12.85
2018-08-20T09:38:22.616Z,11.70
2018-08-20T09:40:56.999Z,14.07
2018-08-20T09:43:25.106Z,14.75
2018-08-20T09:45:53.197Z,13.62
2018-08-20T09:48:21.399Z,13.48
2018-08-20T09:50:49.485Z,14.25
2018-08-20T09:53:17.642Z,12.18
2018-08-20T09:55:45.702Z,13.05
2018-08-20T09:58:13.821Z,13.15
2018-08-20T10:00:42.168Z,13.70
2018-08-20T10:03:10.709Z,14.55
2018-08-20T10:05:38.819Z,14.93
2018-08-20T10:08:07.079Z,18.02
2018-08-20T10:10:35.144Z,13.93
2018-08-20T10:13:03.260Z,16.15
2018-08-20T10:15:31.457Z,16.45
2018-08-20T10:17:59.613Z,15.60
2018-08-20T10:20:27.728Z,14.33
2018-08-20T10:22:55.954Z,15.65
2018-08-20T10:25:24.031Z,16.20
2018-08-20T10:27:52.539Z,15.45
2018-08-20T10:30:20.778Z,15.35
2018-08-20T10:32:48.869Z,17.27
2018-08-20T10:35:16.957Z,17.57
2018-08-20T10:37:45.196Z,17.35
2018-08-20T10:40:13.158Z,17.32
2018-08-20T10:42:41.256Z,16.95
2018-08-20T10:45:14.523Z,17.48
2018-08-20T10:47:43.258Z,18.12
2018-08-20T10:50:14.920Z,19.32
2018-08-20T10:52:44.159Z,16.80
2018-08-20T10:55:12.227Z,17.12
2018-08-20T10:57:40.359Z,18.35
2018-08-20T11:00:09.311Z,17.77
2018-08-20T11:02:37.444Z,17.85
2018-08-20T11:05:06.597Z,18.17
2018-08-20T11:07:34.762Z,19.90
2018-08-20T11:10:02.830Z,19.05
2018-08-20T11:12:30.932Z,18.30
2018-08-20T11:14:59.002Z,17.17
2018-08-20T11:17:27.174Z,18.12
2018-08-20T11:19:55.563Z,16.77
2018-08-20T11:22:23.654Z,16.52
2018-08-20T11:24:51.735Z,19.32
2018-08-20T11:27:26.226Z,19.98
2018-08-20T11:29:54.299Z,14.78
2018-08-20T11:32:22.392Z,19.00
2018-08-20T11:34:50.547Z,19.73
2018-08-20T11:37:18.719Z,17.52
2018-08-20T11:39:46.836Z,15.85
2018-08-20T11:42:14.963Z,18.15
2018-08-20T11:44:43.154Z,16.45
2018-08-20T11:47:12.224Z,13.65
2018-08-20T11:49:40.310Z,15.68
2018-08-20T11:52:08.380Z,15.53
2018-08-20T11:54:36.472Z,14.50
2018-08-20T11:57:04.565Z,16.12
2018-08-20T11:59:32.646Z,12.45
2018-08-20T12:02:01.047Z,12.98
2018-08-20T12:04:29.105Z,12.60
2018-08-20T12:06:57.280Z,10.70
2018-08-20T12:09:25.316Z,10.08
2018-08-20T12:11:53.377Z,9.73
2018-08-20T12:14:21.472Z,10.28
2018-08-20T12:16:49.589Z,9.70
2018-08-20T12:19:17.675Z,8.78
2018-08-20T12:21:45.772Z,8.50
2018-08-20T12:24:13.885Z,9.50
2018-08-20T12:26:41.951Z,10.40
2018-08-20T12:29:10.052Z,10.98
2018-08-20T12:31:38.123Z,12.43
2018-08-20T12:34:06.215Z,11.28
2018-08-20T12:36:34.299Z,11.05
2018-08-20T12:39:02.459Z,10.93
2018-08-20T12:41:30.588Z,11.97
2018-08-20T12:43:58.687Z,11.25
2018-08-20T12:46:26.828Z,11.28
2018-08-20T12:48:55.053Z,10.98
2018-08-20T12:51:23.151Z,10.43
2018-08-20T12:53:51.252Z,10.70
2018-08-20T12:56:19.380Z,11.38
2018-08-20T12:58:51.907Z,11.30
2018-08-20T13:01:20.021Z,10.43
2018-08-20T13:03:48.918Z,12.03
2018-08-20T13:06:17.118Z,11.88
2018-08-20T13:08:46.323Z,11.83
2018-08-20T13:11:14.779Z,12.10
2018-08-20T13:13:42.990Z,10.90
2018-08-20T13:16:11.262Z,12.70
2018-08-20T13:18:39.296Z,12.37
2018-08-20T13:21:07.364Z,11.93
2018-08-20T13:23:35.550Z,9.88
2018-08-20T13:26:03.689Z,10.25
2018-08-20T13:28:31.749Z,10.13
2018-08-20T13:30:59.908Z,8.25
2018-08-20T13:33:27.997Z,8.25
2018-08-20T13:35:56.128Z,7.35
2018-08-20T13:38:24.233Z,7.60
2018-08-20T13:40:52.316Z,5.95
2018-08-20T13:43:20.487Z,5.85
2018-08-20T13:45:48.660Z,5.75
2018-08-20T13:48:16.819Z,6.65
2018-08-20T13:50:44.897Z,6.50
2018-08-20T13:53:12.984Z,6.78
2018-08-20T13:55:41.061Z,6.85
2018-08-20T13:58:09.252Z,7.30
2018-08-20T14:00:37.368Z,7.70
2018-08-20T14:03:05.456Z,7.80
2018-08-20T14:05:33.569Z,8.23
2018-08-20T14:08:01.712Z,7.92
2018-08-20T14:10:29.794Z,7.72
2018-08-20T14:12:57.847Z,7.20
2018-08-20T14:15:25.991Z,6.75
2018-08-20T14:17:54.117Z,6.90
2018-08-20T14:20:22.228Z,7.03
2018-08-20T14:22:50.284Z,7.90
2018-08-20T14:25:18.373Z,6.97
2018-08-20T14:27:46.453Z,7.70
2018-08-20T14:30:15.467Z,7.50
2018-08-20T14:32:44.013Z,7.08
2018-08-20T14:35:12.415Z,7.37
2018-08-20T14:37:40.900Z,7.60
2018-08-20T14:40:12.696Z,7.37
2018-08-20T14:42:40.906Z,7.22
2018-08-20T14:45:11.412Z,7.72
2018-08-20T14:47:40.588Z,7.75
2018-08-20T14:50:11.973Z,7.62
2018-08-20T14:52:40.268Z,7.20
2018-08-20T14:55:08.767Z,7.17
2018-08-20T14:57:37.024Z,6.67
2018-08-20T15:00:06.703Z,6.72
2018-08-20T15:02:34.811Z,7.17
2018-08-20T15:05:02.891Z,7.85
2018-08-20T15:07:30.980Z,6.50
2018-08-20T15:09:59.108Z,7.28
2018-08-20T15:12:27.151Z,6.50
2018-08-20T15:14:55.287Z,6.55
2018-08-20T15:17:23.377Z,6.72
2018-08-20T15:19:51.450Z,6.30
2018-08-20T15:22:19.532Z,5.70
2018-08-20T15:24:47.640Z,5.83
2018-08-20T15:27:15.706Z,5.55
2018-08-20T15:29:43.838Z,4.67
2018-08-20T15:32:12.063Z,5.37
2018-08-20T15:34:40.112Z,4.87
2018-08-20T15:37:08.506Z,5.60
2018-08-20T15:39:36.702Z,5.72
2018-08-20T15:42:04.655Z,5.08
2018-08-20T15:44:33.021Z,4.40
2018-08-20T15:47:01.110Z,4.37
2018-08-20T15:49:29.196Z,3.98
2018-08-20T15:51:57.321Z,4.00
2018-08-20T15:54:25.739Z,3.95
2018-08-20T15:56:53.802Z,4.30
2018-08-20T15:59:21.933Z,4.22
2018-08-20T16:01:51.429Z,4.45
2018-08-20T16:04:19.534Z,3.55
2018-08-20T16:06:47.620Z,3.72
2018-08-20T16:09:16.969Z,3.80
2018-08-20T16:11:45.128Z,3.62
2018-08-20T16:14:13.230Z,3.72
2018-08-20T16:16:41.355Z,3.67
2018-08-20T16:19:09.594Z,3.90
2018-08-20T16:21:37.679Z,3.52
2018-08-20T16:24:10.830Z,3.62
2018-08-20T16:29:18.611Z,2.87
2018-08-20T16:31:46.848Z,2.90
2018-08-20T16:34:14.981Z,2.75
2018-08-20T16:36:43.241Z,2.70
2018-08-20T16:39:13.311Z,2.40
2018-08-20T16:41:41.397Z,2.10
2018-08-20T16:44:10.590Z,2.47
2018-08-20T16:46:39.123Z,2.22
2018-08-20T16:49:08.341Z,2.47
2018-08-20T16:51:36.488Z,2.60
2018-08-20T16:54:04.609Z,2.05
2018-08-20T16:56:32.911Z,2.45
2018-08-20T16:59:00.990Z,2.30
2018-08-20T17:01:29.113Z,2.05
2018-08-20T17:03:57.235Z,1.98
2018-08-20T17:06:35.880Z,2.20
2018-08-20T17:09:04.471Z,1.90
2018-08-20T17:11:32.760Z,1.92
2018-08-20T17:14:00.967Z,1.72
2018-08-20T17:16:29.151Z,1.55
2018-08-20T17:18:57.336Z,1.52
2018-08-20T17:21:25.889Z,1.75
2018-08-20T17:23:53.968Z,1.50
2018-08-20T17:26:22.100Z,1.30
2018-08-20T17:28:54.768Z,1.55
2018-08-20T17:31:24.800Z,1.20
2018-08-20T17:33:53.181Z,1.32
2018-08-20T17:36:21.766Z,2.02
2018-08-20T17:38:50.136Z,1.50
2018-08-20T17:41:18.444Z,1.55
2018-08-20T17:43:46.792Z,2.15
2018-08-20T17:46:14.967Z,1.37
2018-08-20T17:48:43.327Z,1.50
2018-08-20T17:51:14.088Z,1.67
2018-08-20T17:53:51.424Z,1.65
2018-08-20T17:56:19.724Z,1.98
2018-08-20T17:58:51.891Z,1.80
2018-08-20T18:01:20.065Z,1.90
2018-08-20T18:03:48.169Z,1.80
2018-08-20T18:06:16.251Z,1.50
2018-08-20T18:08:44.409Z,1.70
2018-08-20T18:11:12.511Z,1.90
2018-08-20T18:13:46.780Z,1.47
2018-08-20T18:16:16.104Z,1.62
2018-08-20T18:18:46.861Z,1.57
2018-08-20T18:21:15.027Z,2.12
2018-08-20T18:23:43.140Z,1.57
2018-08-20T18:26:11.240Z,1.65
2018-08-20T18:28:45.344Z,1.67
2018-08-20T18:31:19.880Z,1.90
2018-08-20T18:33:48.296Z,1.60
2018-08-20T18:36:17.680Z,1.60
2018-08-20T18:38:52.217Z,1.60
2018-08-20T18:41:21.942Z,1.62
2018-08-20T18:43:50.197Z,1.40
2018-08-20T18:46:18.636Z,1.52
2018-08-20T18:48:46.713Z,1.90
2018-08-20T18:51:16.030Z,1.80
2018-08-20T18:53:44.141Z,1.50
2018-08-20T18:56:13.743Z,2.30
2018-08-20T18:58:42.971Z,1.92
2018-08-20T19:01:11.411Z,1.32
2018-08-20T19:03:44.752Z,1.60
2018-08-20T19:06:13.144Z,1.80
2018-08-20T19:08:41.832Z,1.67
2018-08-20T19:11:10.920Z,2.02
2018-08-20T19:13:38.993Z,1.60
2018-08-20T19:16:25.566Z,1.80
2018-08-20T19:18:54.067Z,1.80
2018-08-20T19:21:26.403Z,1.67
2018-08-20T19:23:55.432Z,1.40
2018-08-20T19:26:23.807Z,2.00
2018-08-20T19:28:52.257Z,1.90
2018-08-20T19:31:20.380Z,1.67
2018-08-20T19:33:48.495Z,1.62
2018-08-20T19:36:16.786Z,1.60
2018-08-20T19:38:44.862Z,2.00
2018-08-20T19:41:14.783Z,1.95
2018-08-20T19:43:50.063Z,1.90
2018-08-20T19:46:27.296Z,1.87
2018-08-20T19:49:01.608Z,2.33
2018-08-20T19:51:29.707Z,1.62
2018-08-20T19:53:57.788Z,2.00
2018-08-20T19:56:25.845Z,1.80
2018-08-20T19:58:53.990Z,2.20
2018-08-20T20:01:22.102Z,1.95
2018-08-20T20:03:50.912Z,2.62
2018-08-20T20:06:19.175Z,1.90
2018-08-20T20:08:47.278Z,2.00
2018-08-20T20:11:21.979Z,2.35
2018-08-20T20:13:54.407Z,2.52
2018-08-20T20:16:22.755Z,2.22
2018-08-20T20:18:51.376Z,2.17
2018-08-20T20:21:20.083Z,2.30
2018-08-20T20:23:48.365Z,1.80
2018-08-20T20:26:16.549Z,2.10
2018-08-20T20:28:44.612Z,2.27
2018-08-20T20:31:12.823Z,1.70
2018-08-20T20:33:40.921Z,1.70
2018-08-20T20:36:12.278Z,2.10
2018-08-20T20:38:40.448Z,1.72
2018-08-20T20:41:09.026Z,2.17
2018-08-20T20:43:37.999Z,1.92
2018-08-20T20:46:07.767Z,2.00
2018-08-20T20:48:35.863Z,2.37
2018-08-20T20:51:03.947Z,2.00
2018-08-20T20:53:32.040Z,2.10
2018-08-20T20:56:00.168Z,2.37
2018-08-20T20:58:33.573Z,2.45
2018-08-20T21:01:03.174Z,1.85
2018-08-20T21:03:31.312Z,2.40
2018-08-20T21:06:00.107Z,1.87
2018-08-20T21:08:32.719Z,1.72
2018-08-20T21:11:00.812Z,1.75
2018-08-20T21:13:28.906Z,1.65
2018-08-20T21:16:03.227Z,1.77
2018-08-20T21:18:33.555Z,2.10
2018-08-20T21:21:01.785Z,1.90
2018-08-20T21:23:30.022Z,1.62
2018-08-20T21:25:58.245Z,2.27
2018-08-20T21:28:30.842Z,2.52
2018-08-20T21:30:58.970Z,1.65
2018-08-20T21:33:27.069Z,1.80
2018-08-20T21:35:55.188Z,2.37
2018-08-20T21:38:23.245Z,2.00
2018-08-20T21:40:51.332Z,1.80
2018-08-20T21:43:19.396Z,1.50
2018-08-20T21:45:47.487Z,1.90
2018-08-20T21:48:15.603Z,14.58
2018-08-20T21:50:43.679Z,7.28
2018-08-20T21:53:12.032Z,2.45
2018-08-20T21:55:40.111Z,2.77
2018-08-20T21:58:08.214Z,2.00
2018-08-20T22:00:36.342Z,2.15
2018-08-20T22:03:04.384Z,2.40
2018-08-20T22:05:32.455Z,1.95
2018-08-20T22:08:00.597Z,2.20
2018-08-20T22:10:29.752Z,1.70
2018-08-20T22:12:57.897Z,1.90
2018-08-20T22:15:25.972Z,2.08
2018-08-20T22:17:54.086Z,2.20
2018-08-20T22:20:28.928Z,2.45
2018-08-20T22:22:56.966Z,2.60
2018-08-20T22:25:25.067Z,5.58
2018-08-20T22:27:55.792Z,2.83
2018-08-20T22:30:24.479Z,1.95
2018-08-20T22:32:52.557Z,1.60
2018-08-20T22:35:24.699Z,1.90
2018-08-20T22:37:53.104Z,2.12
2018-08-20T22:40:21.686Z,1.98
2018-08-20T22:42:56.064Z,2.15
2018-08-20T22:45:24.146Z,2.15
2018-08-20T22:47:52.566Z,1.87
2018-08-20T22:50:20.644Z,1.90
2018-08-20T22:52:49.870Z,2.00
2018-08-20T22:55:19.112Z,1.92
2018-08-20T22:57:59.164Z,2.30
2018-08-20T23:00:27.740Z,2.30
2018-08-20T23:02:56.655Z,2.37
2018-08-20T23:05:28.789Z,2.10
2018-08-20T23:07:58.862Z,1.85
2018-08-20T23:10:26.931Z,2.30
2018-08-20T23:12:55.012Z,2.12
2018-08-20T23:15:23.083Z,2.10
2018-08-20T23:17:51.194Z,2.30
2018-08-20T23:20:27.393Z,2.80
2018-08-20T23:22:55.471Z,1.90
2018-08-20T23:25:23.549Z,2.42
2018-08-20T23:27:51.613Z,2.67
2018-08-20T23:30:20.135Z,2.08
2018-08-20T23:32:48.388Z,1.87
2018-08-20T23:35:16.482Z,2.30
2018-08-20T23:37:44.620Z,2.08
2018-08-20T23:40:12.703Z,2.30
2018-08-20T23:42:40.816Z,2.00
2018-08-20T23:45:08.896Z,2.22
2018-08-20T23:47:36.976Z,2.08
2018-08-20T23:50:05.578Z,3.00
2018-08-20T23:52:33.688Z,2.60
2018-08-20T23:55:01.766Z,2.20
2018-08-20T23:57:29.919Z,2.75
2018-08-20T23:59:57.964Z,2.95
